Vannes, Francia

12:10 PM CET en Noviembre 25, 2017 (GMT +0100)
Impasse des Goélands | | Change Station

Alt 0 ft 47.63 °N, 2.94 °W | Updated 9 minutes ago

Despejado
Despejado
45.3 ° F
Sensación térmica 44 ° F
N
3.1
Viento Variable Viento desde Oeste
Gusts 11.2 mph

Hoy
Alta -- | Baja -- ° F
--% Posibilidad de precipitaciones
Ayer
Alta -- | Baja -- ° F
Precip. -- pul
Presión 30.18 pul
Visibilidad -9999.0 Millas
Nubes
Vientos helados 44 ° F
Punto de rocío 40 ° F
Humedad 80%
Precipitaciones 0.00 pul
Espesor de la nieve No disponible.
8:31 AM 5:25 PM
Creciente, 38% visible
METAR LFRV 251100Z AUTO 30009KT 270V340 CAVOK 07/02 Q1022
Presión 30.18 pul
Visibilidad -9999.0 Millas
Nubes
Vientos helados 44 ° F
Punto de rocío 40 ° F
Humedad 80%
Precipitaciones 0.00 pul
Espesor de la nieve No disponible.
8:31 AM 5:25 PM
Creciente, 38% visible
METAR LFRV 251100Z AUTO 30009KT 270V340 CAVOK 07/02 Q1022

Get Severe Weather Alerts

Thanks for signing up!

Be on the lookout for a verification email in your inbox.

You'll start receiving the daily forecast at 6 AM.

×

10-Day Weather Forecast

×

Almanac

Astronomía

Nov. 25, 2017 Salida Puesta
Hora real
Crepúsculo civil
Crepúsculo náutico
Crepúsculo astronómico
Luna
Horas de luz
Horas de luz
Tomorrow will be .
, % of the Moon is Illuminated

Extremos de hoy

Máximos del país Bajas del país

Community

WunderPhotos

Category 6

Welcome to Category 6. This is the collective home for Weather Underground's featured writeups by Dr. Jeff Masters (right), Bob Henson (left), Chris Burt, and other regular contributors.

Nearby

Calidad del aire

  Calidad del aire Índice AQ Contaminante
Not available.

Grosos de nieve

Estación Profundido Altura

Actividad de terremotos

Ciudad Distance Mag. Tiempo y dato
Magnitud mínima muestra es 2,5.

Temperaturas de aguas costeras

Lugar Temperatura

Stations

Estaciones meteorológicas cercanas

Ubicación de la estación Temp. Vientos helados Punto de rocío Humedad Viento Precip. Alt Actualizado Tipo